Terminal Aerodrome Forecast
Issued by NWS

Home | Current Version | Previous Version | Text Only | Print | Product List | Glossary On
Versions: 1 2 3 4 5 6 7 8 9 10 11 12 13 14 15 16 17 18
588
FTUS43 KSGF 251158 CCA
TAFJLN
TAF COR
KJLN 251158Z 2512/2612 28010KT P6SM VCSH BKN006 OVC012
     FM251400 26006KT 4SM BR VCSH OVC025
     FM251600 29008KT P6SM VCSH OVC020
     FM252200 28006KT P6SM OVC015
     FM260800 25005KT 4SM BR OVC010=

USA.gov is the U.S. government's official web portal to all federal, state and local government web resources and services.